Time;durP1;ratioP1;P1;durP2;ratioP2;P2;SDS_P1;SDS_P2;PMS_P1;PMS_P2;Temp;Humidity;BMP_temperature;BMP_pressure;BME280_temperature;BME280_humidity;BME280_pressure;Samples;Min_cycle;Max_cycle;Signal;HPM_P1;HPM_P2
2022/10/27 00:01:10;;;;;;;;;;;;;;;14.27;100.00;98824.31;5059724;28;19925;-65
2022/10/27 00:03:36;;;;;;;;;;;;;;;14.27;100.00;98827.00;5061855;28;19913;-64
2022/10/27 00:06:05;;;;;;;;;;;;;;;14.30;100.00;98831.03;5062148;28;19957;-66
2022/10/27 00:08:31;;;;;;;;;;;;;;;14.34;100.00;98824.09;5064899;28;19984;-65
2022/10/27 00:10:58;;;;;;;;;;;;;;;14.17;100.00;98815.41;5062001;28;20008;-66
2022/10/27 00:13:24;;;;;;;;;;;;;;;14.11;100.00;98813.78;5058652;28;19968;-66
2022/10/27 00:15:55;;;;;;;;;;;;;;;14.17;100.00;98815.41;5058247;28;19925;-65
2022/10/27 00:18:23;;;;;;;;;;;;;;;14.20;100.00;98825.63;5061012;28;19996;-66
2022/10/27 00:20:56;;;;;;;;;;;;;;;14.23;100.00;98822.44;5061672;28;20003;-66
2022/10/27 00:23:23;;;;;;;;;;;;;;;14.20;100.00;98831.00;5042361;28;19932;-65
2022/10/27 00:25:52;;;;;;;;;;;;;;;14.12;100.00;98823.44;5058181;28;20012;-65
2022/10/27 00:28:18;;;;;;;;;;;;;;;14.17;100.00;98821.59;5060222;28;19985;-66
2022/10/27 00:30:45;;;;;;;;;;;;;;;14.22;100.00;98818.94;5061554;28;19987;-66
2022/10/27 00:33:11;;;;;;;;;;;;;;;14.14;100.00;98835.56;5059995;28;19925;-66
2022/10/27 00:35:39;;;;;;;;;;;;;;;14.17;100.00;98826.97;5056784;28;19925;-66
2022/10/27 00:38:05;;;;;;;;;;;;;;;14.20;100.00;98836.38;5058194;28;19925;-64
2022/10/27 00:40:36;;;;;;;;;;;;;;;14.19;100.00;98834.75;5061605;28;20106;-65
2022/10/27 00:43:02;;;;;;;;;;;;;;;14.21;100.00;98843.34;5061355;28;19963;-65
2022/10/27 00:45:28;;;;;;;;;;;;;;;14.19;100.00;98840.94;5057934;28;20408;-65
2022/10/27 00:47:55;;;;;;;;;;;;;;;14.18;100.00;98841.19;5057593;28;20023;-64
2022/10/27 00:50:23;;;;;;;;;;;;;;;14.16;100.00;98843.34;5060312;28;19925;-64
2022/10/27 00:52:53;;;;;;;;;;;;;;;14.18;100.00;98851.94;5047954;28;19975;-65
2022/10/27 00:55:22;;;;;;;;;;;;;;;14.13;100.00;98844.69;5056603;28;20016;-64
2022/10/27 00:57:50;;;;;;;;;;;;;;;14.15;100.00;98850.59;5057758;28;20008;-65
2022/10/27 01:00:17;;;;;;;;;;;;;;;14.15;100.00;98850.59;5059442;28;19976;-65
2022/10/27 01:02:44;;;;;;;;;;;;;;;14.07;100.00;98853.78;5060516;28;19925;-64
2022/10/27 01:05:12;;;;;;;;;;;;;;;13.95;100.00;98851.34;5059632;28;20051;-64
2022/10/27 01:07:39;;;;;;;;;;;;;;;13.99;100.00;98863.16;5057421;28;19951;-65
2022/10/27 01:10:07;;;;;;;;;;;;;;;14.00;100.00;98854.03;5057811;28;19928;-65
2022/10/27 01:12:33;;;;;;;;;;;;;;;14.05;100.00;98855.91;5060862;28;20020;-64
2022/10/27 01:14:59;;;;;;;;;;;;;;;14.03;100.00;98861.56;5060831;28;19929;-65
2022/10/27 01:17:40;;;;;;;;;;;;;;;14.05;100.00;98858.59;5057629;28;19925;-65
2022/10/27 01:20:21;;;;;;;;;;;;;;;13.99;100.00;98855.09;5058024;28;19936;-65
2022/10/27 01:22:52;;;;;;;;;;;;;;;14.01;100.00;98850.28;5048121;28;19925;-65
2022/10/27 01:25:32;;;;;;;;;;;;;;;14.04;100.00;98843.56;5056138;28;19974;-66
2022/10/27 01:28:09;;;;;;;;;;;;;;;13.99;100.00;98852.41;5057476;28;19929;-65
2022/10/27 01:30:39;;;;;;;;;;;;;;;13.91;100.00;98841.38;5050697;28;19956;-64
2022/10/27 01:33:10;;;;;;;;;;;;;;;13.86;100.00;98852.91;5057815;28;19971;-64
2022/10/27 01:35:43;;;;;;;;;;;;;;;13.85;100.00;98872.75;5060658;28;19952;-65
2022/10/27 01:38:12;;;;;;;;;;;;;;;13.80;100.00;98864.66;5059341;28;19997;-65
2022/10/27 01:40:44;;;;;;;;;;;;;;;13.84;100.00;98860.41;5057110;28;19932;-65
2022/10/27 01:43:14;;;;;;;;;;;;;;;13.87;100.00;98851.81;5058241;28;19960;-64
2022/10/27 01:45:41;;;;;;;;;;;;;;;13.85;100.00;98855.84;5060733;28;19925;-64
2022/10/27 01:48:10;;;;;;;;;;;;;;;13.86;100.00;98858.28;5059764;28;19996;-65
2022/10/27 01:50:38;;;;;;;;;;;;;;;13.85;100.00;98867.38;5057105;28;19937;-64
2022/10/27 01:53:04;;;;;;;;;;;;;;;13.79;100.00;98856.88;5057370;28;19989;-65
2022/10/27 01:55:35;;;;;;;;;;;;;;;13.73;100.00;98850.69;5059394;28;19992;-65
2022/10/27 01:58:08;;;;;;;;;;;;;;;13.82;100.00;98862.53;5060497;28;20340;-64
2022/10/27 02:00:39;;;;;;;;;;;;;;;13.81;100.00;98860.91;5049663;28;19926;-64
2022/10/27 02:03:08;;;;;;;;;;;;;;;13.83;100.00;98863.34;5056744;28;20028;-64
2022/10/27 02:05:39;;;;;;;;;;;;;;;13.83;100.00;98858.75;5059627;28;20298;-64
2022/10/27 02:08:08;;;;;;;;;;;;;;;13.82;100.00;98869.78;5059203;28;19996;-64
2022/10/27 02:10:37;;;;;;;;;;;;;;;13.81;100.00;98860.91;5056441;28;19928;-65
2022/10/27 02:13:04;;;;;;;;;;;;;;;13.79;100.00;98859.56;5056408;28;19925;-65
2022/10/27 02:15:31;;;;;;;;;;;;;;;13.74;100.00;98865.69;5059791;28;20004;-65
2022/10/27 02:18:00;;;;;;;;;;;;;;;13.76;100.00;98874.31;5059861;28;19931;-64
2022/10/27 02:20:29;;;;;;;;;;;;;;;13.75;100.00;98880.75;5056646;28;20101;-65
2022/10/27 02:22:59;;;;;;;;;;;;;;;13.75;100.00;98878.06;5056366;28;19988;-64
2022/10/27 02:25:27;;;;;;;;;;;;;;;13.68;100.00;98882.84;5059610;28;19925;-65
2022/10/27 02:27:57;;;;;;;;;;;;;;;13.67;100.00;98875.88;5059891;28;19932;-65
2022/10/27 02:30:24;;;;;;;;;;;;;;;13.65;100.00;98875.31;5056126;28;19981;-65
2022/10/27 02:32:50;;;;;;;;;;;;;;;13.63;100.00;98880.13;5056399;28;19968;-65
2022/10/27 02:35:17;;;;;;;;;;;;;;;13.67;100.00;98881.25;5058006;28;19929;-65
2022/10/27 02:37:45;;;;;;;;;;;;;;;13.64;100.00;98879.09;5059790;28;19964;-65
2022/10/27 02:40:12;;;;;;;;;;;;;;;13.62;100.00;98881.19;5058465;28;19949;-65
2022/10/27 02:42:39;;;;;;;;;;;;;;;13.34;100.00;98876.16;5056561;28;19987;-65
2022/10/27 02:45:05;;;;;;;;;;;;;;;13.11;100.00;98871.97;5056653;28;19925;-66
2022/10/27 02:47:32;;;;;;;;;;;;;;;13.18;100.00;98877.13;5059708;28;19952;-65
2022/10/27 02:49:58;;;;;;;;;;;;;;;13.27;100.00;98875.59;5059698;28;20301;-65
2022/10/27 02:52:24;;;;;;;;;;;;;;;13.35;100.00;98883.16;5056773;28;19925;-64
2022/10/27 02:54:51;;;;;;;;;;;;;;;13.41;100.00;98876.75;5056052;28;19956;-65
2022/10/27 02:57:19;;;;;;;;;;;;;;;13.45;100.00;98872.50;5058332;28;19968;-65
2022/10/27 02:59:45;;;;;;;;;;;;;;;13.47;100.00;98875.72;5059419;28;19932;-65
2022/10/27 03:02:12;;;;;;;;;;;;;;;13.47;100.00;98875.72;5057767;28;19971;-64
2022/10/27 03:04:38;;;;;;;;;;;;;;;13.46;100.00;98874.91;5056057;28;19937;-65
2022/10/27 03:07:04;;;;;;;;;;;;;;;13.48;100.00;98875.50;5056017;28;19926;-64
2022/10/27 03:09:31;;;;;;;;;;;;;;;13.46;100.00;98877.59;5059212;28;19924;-64
2022/10/27 03:11:57;;;;;;;;;;;;;;;13.38;100.00;98874.59;5059099;28;19988;-65
2022/10/27 03:14:25;;;;;;;;;;;;;;;13.35;100.00;98875.09;5056147;28;19925;-65
2022/10/27 03:16:51;;;;;;;;;;;;;;;13.36;100.00;98874.06;5056052;28;20557;-65
2022/10/27 03:19:17;;;;;;;;;;;;;;;13.36;100.00;98872.19;5057148;28;19964;-64
2022/10/27 03:21:44;;;;;;;;;;;;;;;13.39;100.00;98873.53;5059558;28;19932;-64
2022/10/27 03:24:10;;;;;;;;;;;;;;;13.39;100.00;98870.84;5057880;28;19976;-65
2022/10/27 03:26:36;;;;;;;;;;;;;;;13.35;100.00;98862.50;5056143;28;20035;-65
2022/10/27 03:29:03;;;;;;;;;;;;;;;13.42;100.00;98873.84;5054948;28;19951;-65
2022/10/27 03:31:30;;;;;;;;;;;;;;;13.39;100.00;98878.91;5059288;28;19956;-64
2022/10/27 03:33:57;;;;;;;;;;;;;;;13.38;100.00;98870.03;5059097;28;19921;-67
2022/10/27 03:36:23;;;;;;;;;;;;;;;13.43;100.00;98877.34;5056128;28;19936;-65
2022/10/27 03:38:49;;;;;;;;;;;;;;;13.40;100.00;98872.47;5055614;28;19998;-64
2022/10/27 03:41:16;;;;;;;;;;;;;;;13.41;100.00;98876.75;5056388;28;19951;-65
2022/10/27 03:43:42;;;;;;;;;;;;;;;13.41;100.00;98882.13;5059180;28;20008;-64
2022/10/27 03:46:09;;;;;;;;;;;;;;;13.36;100.00;98874.06;5058274;28;19925;-65
2022/10/27 03:48:37;;;;;;;;;;;;;;;13.37;100.00;98878.34;5055991;28;19967;-64
2022/10/27 03:51:03;;;;;;;;;;;;;;;13.36;100.00;98874.88;5055777;28;19935;-65
2022/10/27 03:53:30;;;;;;;;;;;;;;;13.25;100.00;98880.38;5058849;28;19955;-64
2022/10/27 03:55:56;;;;;;;;;;;;;;;13.20;100.00;98891.09;5059043;28;19936;-64
2022/10/27 03:58:22;;;;;;;;;;;;;;;13.17;100.00;98886.22;5056330;28;19925;-64
2022/10/27 04:00:49;;;;;;;;;;;;;;;12.98;100.00;98897.31;5055661;28;19984;-65
2022/10/27 04:03:15;;;;;;;;;;;;;;;12.66;100.00;98893.75;5057209;28;20001;-66
2022/10/27 04:05:43;;;;;;;;;;;;;;;12.52;100.00;98889.06;5058833;28;19988;-65
2022/10/27 04:08:09;;;;;;;;;;;;;;;12.55;100.00;98893.91;5057991;28;19984;-64
2022/10/27 04:10:35;;;;;;;;;;;;;;;12.67;100.00;98897.25;5055272;28;20320;-64
2022/10/27 04:13:02;;;;;;;;;;;;;;;12.76;100.00;98901.09;5055773;28;20019;-65
2022/10/27 04:15:28;;;;;;;;;;;;;;;12.87;100.00;98897.47;5047528;28;19996;-64
2022/10/27 04:17:55;;;;;;;;;;;;;;;12.97;100.00;98895.69;5057722;28;20080;-64
2022/10/27 04:20:21;;;;;;;;;;;;;;;13.03;100.00;98903.78;5059132;28;19925;-65
2022/10/27 04:22:49;;;;;;;;;;;;;;;13.08;100.00;98899.31;5052274;28;19993;-64
2022/10/27 04:25:15;;;;;;;;;;;;;;;13.06;100.00;98903.28;5056755;28;19989;-64
2022/10/27 04:27:42;;;;;;;;;;;;;;;12.90;100.00;98897.75;5058509;28;19925;-64
2022/10/27 04:30:08;;;;;;;;;;;;;;;12.85;100.00;98899.59;5057591;28;19960;-65
2022/10/27 04:32:35;;;;;;;;;;;;;;;12.54;100.00;98903.00;5055080;28;19984;-65
2022/10/27 04:35:01;;;;;;;;;;;;;;;12.35;100.00;98905.19;5055575;28;19925;-64
2022/10/27 04:37:28;;;;;;;;;;;;;;;12.41;100.00;98905.00;5048518;28;19925;-65
2022/10/27 04:39:55;;;;;;;;;;;;;;;12.61;100.00;98899.06;5055706;28;20401;-64
2022/10/27 04:42:22;;;;;;;;;;;;;;;12.75;100.00;98910.22;5057750;28;19988;-64
2022/10/27 04:44:48;;;;;;;;;;;;;;;12.82;100.00;98905.44;5058826;28;19964;-65
2022/10/27 04:47:14;;;;;;;;;;;;;;;12.91;100.00;98907.44;5056345;28;19961;-65
2022/10/27 04:49:40;;;;;;;;;;;;;;;12.95;100.00;98902.38;5054666;28;20408;-64
2022/10/27 04:52:07;;;;;;;;;;;;;;;12.96;100.00;98917.41;5055316;28;19936;-64
2022/10/27 04:54:33;;;;;;;;;;;;;;;12.99;100.00;98908.84;5058046;28;19925;-64
2022/10/27 04:57:01;;;;;;;;;;;;;;;12.92;100.00;98911.72;5058035;28;20068;-65
2022/10/27 04:59:27;;;;;;;;;;;;;;;12.95;100.00;98913.91;5061404;28;19925;-65
2022/10/27 05:01:53;;;;;;;;;;;;;;;13.00;100.00;98907.75;5061359;28;20000;-65
2022/10/27 05:04:20;;;;;;;;;;;;;;;13.00;100.00;98905.91;5058699;28;19974;-65
2022/10/27 05:06:46;;;;;;;;;;;;;;;13.02;100.00;98908.34;5057919;28;19925;-65
2022/10/27 05:09:12;;;;;;;;;;;;;;;12.83;100.00;98921.28;5058889;28;19985;-65
2022/10/27 05:11:39;;;;;;;;;;;;;;;12.78;100.00;98915.88;5061028;28;19992;-65
2022/10/27 05:14:06;;;;;;;;;;;;;;;12.75;100.00;98916.38;5060719;28;19932;-65
2022/10/27 05:16:33;;;;;;;;;;;;;;;12.73;100.00;98929.22;5057650;28;19925;-65
2022/10/27 05:18:59;;;;;;;;;;;;;;;12.86;100.00;98911.94;5057442;28;19981;-65
2022/10/27 05:21:25;;;;;;;;;;;;;;;12.89;100.00;98909.56;5061132;28;19978;-65
2022/10/27 05:23:52;;;;;;;;;;;;;;;12.76;100.00;98928.72;5061026;28;19984;-66
2022/10/27 05:26:18;;;;;;;;;;;;;;;12.65;100.00;98918.16;5058981;28;20444;-64
2022/10/27 05:28:45;;;;;;;;;;;;;;;12.38;100.00;98921.59;5057515;28;20020;-64
2022/10/27 05:31:13;;;;;;;;;;;;;;;12.48;100.00;98931.63;5058492;28;19929;-65
2022/10/27 05:33:39;;;;;;;;;;;;;;;12.52;100.00;98926.56;5060720;28;19956;-64
2022/10/27 05:36:06;;;;;;;;;;;;;;;12.53;100.00;98936.25;5060634;28;20031;-65
2022/10/27 05:38:32;;;;;;;;;;;;;;;12.48;100.00;98946.88;5057488;28;19932;-65
2022/10/27 05:40:58;;;;;;;;;;;;;;;12.14;100.00;98928.25;5057709;28;20004;-65
2022/10/27 05:43:25;;;;;;;;;;;;;;;11.97;100.00;98940.88;5060595;28;19980;-64
2022/10/27 05:45:51;;;;;;;;;;;;;;;12.14;100.00;98930.09;5060731;28;19984;-64
2022/10/27 05:48:19;;;;;;;;;;;;;;;12.27;100.00;98925.22;5058427;28;19964;-65
2022/10/27 05:50:45;;;;;;;;;;;;;;;12.30;100.00;98935.44;5057195;28;19992;-65
2022/10/27 05:53:11;;;;;;;;;;;;;;;11.96;100.00;98943.78;5057972;28;19978;-64
2022/10/27 05:55:38;;;;;;;;;;;;;;;11.97;100.00;98942.75;5060504;28;20012;-65
2022/10/27 05:58:05;;;;;;;;;;;;;;;12.11;100.00;98946.69;5060024;28;20009;-65
2022/10/27 06:00:33;;;;;;;;;;;;;;;12.25;100.00;98940.72;5057086;28;19925;-64
2022/10/27 06:03:00;;;;;;;;;;;;;;;12.35;100.00;98942.69;5056506;28;19968;-64
2022/10/27 06:05:29;;;;;;;;;;;;;;;12.35;100.00;98945.38;5059703;28;20455;-64
2022/10/27 06:07:56;;;;;;;;;;;;;;;12.39;100.00;98947.31;5060185;28;19931;-65
2022/10/27 06:10:22;;;;;;;;;;;;;;;12.48;100.00;98962.94;5057591;28;19997;-65
2022/10/27 06:12:48;;;;;;;;;;;;;;;12.44;100.00;98951.91;5056679;28;19964;-64
2022/10/27 06:15:15;;;;;;;;;;;;;;;12.32;100.00;98948.56;5058173;28;19948;-65
2022/10/27 06:17:41;;;;;;;;;;;;;;;12.22;100.00;98968.00;5060192;28;19993;-64
2022/10/27 06:20:08;;;;;;;;;;;;;;;12.20;100.00;98974.66;5059054;28;20557;-65
2022/10/27 06:22:36;;;;;;;;;;;;;;;12.09;100.00;98980.94;5056051;28;19925;-65
2022/10/27 06:25:02;;;;;;;;;;;;;;;12.09;100.00;98980.94;5056344;28;19931;-65
2022/10/27 06:27:30;;;;;;;;;;;;;;;12.20;100.00;98982.69;5048158;28;19989;-65
2022/10/27 06:29:56;;;;;;;;;;;;;;;12.05;100.00;98977.13;5056692;28;19994;-65
2022/10/27 06:32:22;;;;;;;;;;;;;;;11.77;100.00;98980.72;5059109;28;19994;-65
2022/10/27 06:34:49;;;;;;;;;;;;;;;11.64;100.00;98987.19;5059806;28;20667;-65
2022/10/27 06:37:15;;;;;;;;;;;;;;;11.56;100.00;98992.94;5057894;28;19928;-64
2022/10/27 06:39:43;;;;;;;;;;;;;;;11.42;100.00;98986.28;5056247;28;19932;-64
2022/10/27 06:42:09;;;;;;;;;;;;;;;11.36;100.00;98997.94;5057062;28;19925;-64
2022/10/27 06:44:35;;;;;;;;;;;;;;;11.35;100.00;98996.34;5059616;28;20083;-65
2022/10/27 06:47:02;;;;;;;;;;;;;;;11.29;100.00;99003.47;5059618;28;20024;-64
2022/10/27 06:49:28;;;;;;;;;;;;;;;11.29;100.00;98999.97;5047945;28;19960;-65
2022/10/27 06:51:54;;;;;;;;;;;;;;;11.19;100.00;99010.47;5055868;28;19960;-65
2022/10/27 06:54:21;;;;;;;;;;;;;;;11.28;100.00;98999.16;5055821;28;19952;-64
2022/10/27 06:56:48;;;;;;;;;;;;;;;11.38;100.00;99009.22;5056070;28;19968;-65
2022/10/27 06:59:15;;;;;;;;;;;;;;;11.60;100.00;99012.00;5057547;28;19988;-66
2022/10/27 07:01:41;;;;;;;;;;;;;;;11.81;100.00;99017.47;5059221;28;20004;-64
2022/10/27 07:04:07;;;;;;;;;;;;;;;11.77;100.00;99007.47;5058478;28;20009;-64
2022/10/27 07:06:33;;;;;;;;;;;;;;;11.85;100.00;99018.59;5055926;28;19972;-65
2022/10/27 07:09:00;;;;;;;;;;;;;;;12.01;100.00;99013.50;5056006;28;20020;-65
2022/10/27 07:11:27;;;;;;;;;;;;;;;12.15;100.00;99022.78;5058717;28;19975;-64
2022/10/27 07:13:55;;;;;;;;;;;;;;;12.05;100.00;99019.97;5058883;28;19925;-64
2022/10/27 07:16:21;;;;;;;;;;;;;;;11.87;100.00;99021.84;5056229;28;19971;-64
2022/10/27 07:18:47;;;;;;;;;;;;;;;11.80;100.00;99026.53;5055664;28;19929;-64
2022/10/27 07:21:14;;;;;;;;;;;;;;;11.68;100.00;99028.47;5057008;28;19953;-63
2022/10/27 07:23:40;;;;;;;;;;;;;;;11.80;100.00;99028.41;5058698;28;19961;-65
2022/10/27 07:26:06;;;;;;;;;;;;;;;11.83;100.00;99028.72;5058391;28;19925;-65
2022/10/27 07:28:33;;;;;;;;;;;;;;;11.69;100.00;99030.09;5055178;28;19984;-64
2022/10/27 07:31:00;;;;;;;;;;;;;;;11.84;100.00;99026.88;5055382;28;20021;-64
2022/10/27 07:33:27;;;;;;;;;;;;;;;11.76;100.00;99028.06;5058675;27;19987;-64
2022/10/27 07:35:53;;;;;;;;;;;;;;;11.73;100.00;99025.88;5058805;28;19956;-64
2022/10/27 07:38:19;;;;;;;;;;;;;;;11.74;100.00;99037.41;5056406;28;19967;-65
2022/10/27 07:40:46;;;;;;;;;;;;;;;11.76;100.00;99036.09;5054991;28;19989;-64
2022/10/27 07:43:12;;;;;;;;;;;;;;;11.73;100.00;99031.25;5056423;28;19996;-64
2022/10/27 07:45:40;;;;;;;;;;;;;;;11.77;100.00;99037.75;5058823;28;19984;-64
2022/10/27 07:48:10;;;;;;;;;;;;;;;11.80;100.00;99034.56;5058229;28;19980;-64
2022/10/27 07:50:37;;;;;;;;;;;;;;;11.79;100.00;99035.63;5055444;28;19953;-64
2022/10/27 07:53:03;;;;;;;;;;;;;;;11.71;100.00;99040.56;5054901;28;20522;-64
2022/10/27 07:55:31;;;;;;;;;;;;;;;11.67;100.00;99042.88;5047404;28;19925;-64
2022/10/27 07:57:58;;;;;;;;;;;;;;;11.72;100.00;99048.38;5055110;28;19932;-64
2022/10/27 08:00:24;;;;;;;;;;;;;;;11.68;100.00;99055.22;5057905;28;19925;-65
2022/10/27 08:02:50;;;;;;;;;;;;;;;11.65;100.00;99055.69;5058111;28;19988;-64
2022/10/27 08:05:18;;;;;;;;;;;;;;;11.56;100.00;99048.31;5055993;28;19935;-64
2022/10/27 08:07:45;;;;;;;;;;;;;;;11.46;100.00;99048.94;5054702;28;19937;-64
2022/10/27 08:10:11;;;;;;;;;;;;;;;11.49;100.00;99047.66;5055705;28;19961;-65
2022/10/27 08:12:41;;;;;;;;;;;;;;;11.47;100.00;99039.06;5057986;28;20037;-64
2022/10/27 08:15:07;;;;;;;;;;;;;;;11.58;100.00;99047.00;5057476;28;19984;-65
2022/10/27 08:17:34;;;;;;;;;;;;;;;11.64;100.00;99040.69;5054726;28;19989;-64
2022/10/27 08:20:00;;;;;;;;;;;;;;;11.64;100.00;99051.41;5054942;28;19925;-65
2022/10/27 08:22:28;;;;;;;;;;;;;;;11.64;100.00;99059.41;5054620;28;20380;-64
2022/10/27 08:24:54;;;;;;;;;;;;;;;11.67;100.00;99053.59;5054612;28;20034;-64
2022/10/27 08:27:20;;;;;;;;;;;;;;;11.68;100.00;99060.56;5058283;28;19967;-64
2022/10/27 08:29:47;;;;;;;;;;;;;;;11.74;100.00;99056.97;5061757;28;19950;-64
2022/10/27 08:32:14;;;;;;;;;;;;;;;11.76;100.00;99056.72;5060139;28;19960;-64
2022/10/27 08:34:41;;;;;;;;;;;;;;;11.67;100.00;99050.91;5058209;28;19926;-64
2022/10/27 08:37:07;;;;;;;;;;;;;;;11.69;100.00;99056.03;5058198;28;19993;-65
2022/10/27 08:39:35;;;;;;;;;;;;;;;11.62;100.00;99052.69;5061675;28;19960;-65
2022/10/27 08:42:03;;;;;;;;;;;;;;;11.67;100.00;99056.25;5061615;28;19989;-64
2022/10/27 08:44:32;;;;;;;;;;;;;;;11.67;100.00;99058.13;5049915;28;20155;-65
2022/10/27 08:47:02;;;;;;;;;;;;;;;11.63;100.00;99051.66;5057892;28;19997;-65
2022/10/27 08:49:32;;;;;;;;;;;;;;;11.66;100.00;99059.19;5049799;28;19926;-64
2022/10/27 08:52:02;;;;;;;;;;;;;;;11.67;100.00;99058.13;5057800;28;20405;-64
2022/10/27 08:54:28;;;;;;;;;;;;;;;11.79;100.00;99057.03;5061326;28;19956;-64
2022/10/27 08:56:57;;;;;;;;;;;;;;;11.83;100.00;99060.84;5061084;28;19925;-64
2022/10/27 08:59:25;;;;;;;;;;;;;;;11.81;100.00;99062.16;5058133;28;19950;-64
2022/10/27 09:01:56;;;;;;;;;;;;;;;11.88;100.00;99057.47;5057835;28;19967;-64
2022/10/27 09:04:31;;;;;;;;;;;;;;;11.86;100.00;99048.84;5061412;28;19929;-64
2022/10/27 09:07:03;;;;;;;;;;;;;;;11.91;100.00;99049.72;5063992;28;19976;-64
2022/10/27 09:09:33;;;;;;;;;;;;;;;11.96;100.00;99058.91;5053467;28;19925;-63
2022/10/27 09:12:05;;;;;;;;;;;;;;;12.03;100.00;99055.03;5060043;28;19913;-64
2022/10/27 09:14:49;;;;;;;;;;;;;;;12.12;100.00;99056.22;5054555;28;19959;-64
2022/10/27 09:17:19;;;;;;;;;;;;;;;12.17;100.00;99042.91;5064005;28;20401;-64
2022/10/27 09:19:48;;;;;;;;;;;;;;;12.29;100.00;99054.34;5064365;28;19931;-64
2022/10/27 09:22:16;;;;;;;;;;;;;;;12.35;100.00;99053.34;5061372;28;19972;-65
2022/10/27 09:24:42;;;;;;;;;;;;;;;12.43;100.00;99044.91;5059096;28;20000;-64
2022/10/27 09:27:13;;;;;;;;;;;;;;;12.48;100.00;99038.78;5060512;28;19997;-64
2022/10/27 09:29:39;;;;;;;;;;;;;;;12.47;100.00;99047.91;5062169;28;20000;-64
2022/10/27 09:32:07;;;;;;;;;;;;;;;12.51;100.00;99043.66;5059902;28;19924;-64
2022/10/27 09:34:36;;;;;;;;;;;;;;;12.55;100.00;99036.75;5056822;28;19935;-65
2022/10/27 09:37:02;;;;;;;;;;;;;;;12.53;100.00;99038.06;5056993;28;19929;-64
2022/10/27 09:39:29;;;;;;;;;;;;;;;12.59;100.00;99037.06;5047403;28;20255;-64
2022/10/27 09:41:55;;;;;;;;;;;;;;;12.62;100.00;99036.56;5057042;28;19992;-65
2022/10/27 09:44:25;;;;;;;;;;;;;;;12.63;100.00;99038.97;5059352;28;19928;-65
2022/10/27 09:46:52;;;;;;;;;;;;;;;12.72;100.00;99042.84;5062142;28;19925;-65
2022/10/27 09:49:19;;;;;;;;;;;;;;;12.71;100.00;99030.53;5059250;28;19997;-64
2022/10/27 09:51:48;;;;;;;;;;;;;;;12.77;100.00;99034.88;5057694;28;19925;-65
2022/10/27 09:54:27;;;;;;;;;;;;;;;12.85;100.00;99039.81;5056733;28;20035;-65
2022/10/27 09:56:54;;;;;;;;;;;;;;;12.84;100.00;99032.03;5056668;28;20008;-64
2022/10/27 09:59:22;;;;;;;;;;;;;;;12.93;100.00;99036.69;5059028;28;19960;-64
2022/10/27 10:01:56;;;;;;;;;;;;;;;13.00;100.00;99025.75;5060006;28;19925;-65
2022/10/27 10:04:25;;;;;;;;;;;;;;;13.13;100.00;99040.69;5057298;28;19932;-65
2022/10/27 10:06:55;;;;;;;;;;;;;;;13.25;100.00;99034.13;5056227;28;19960;-65
2022/10/27 10:09:23;;;;;;;;;;;;;;;13.28;100.00;99035.47;5058683;28;19981;-65
2022/10/27 10:11:49;;;;;;;;;;;;;;;13.08;100.00;99032.56;5059647;28;20536;-64
2022/10/27 10:14:22;;;;;;;;;;;;;;;13.36;100.00;99032.34;5057856;28;19991;-64
2022/10/27 10:16:50;;;;;;;;;;;;;;;13.38;100.00;99022.97;5056513;28;19985;-64
2022/10/27 10:19:18;;;;;;;;;;;;;;;13.28;100.00;99030.09;5057953;28;20004;-64
2022/10/27 10:21:46;;;;;;;;;;;;;;;13.38;100.00;99031.03;5059882;28;19972;-64
2022/10/27 10:24:16;;;;;;;;;;;;;;;13.42;100.00;99029.47;5057980;28;20016;-65
2022/10/27 10:26:45;;;;;;;;;;;;;;;13.53;100.00;99027.69;5056092;28;19925;-64
2022/10/27 10:29:17;;;;;;;;;;;;;;;13.55;100.00;99022.88;5057193;28;19996;-64
2022/10/27 10:31:43;;;;;;;;;;;;;;;13.53;100.00;99025.81;5059659;28;20014;-64
2022/10/27 10:34:31;;;;;;;;;;;;;;;13.60;100.00;99020.22;5058772;28;19925;-64
2022/10/27 10:36:57;;;;;;;;;;;;;;;13.51;100.00;99024.44;5056433;28;19929;-64
2022/10/27 10:39:25;;;;;;;;;;;;;;;13.66;100.00;99027.25;5057804;28;19928;-65
2022/10/27 10:42:10;;;;;;;;;;;;;;;13.68;100.00;99021.66;5059675;28;20204;-63
2022/10/27 10:44:36;;;;;;;;;;;;;;;13.63;100.00;99016.22;5049156;28;19992;-64
2022/10/27 10:47:04;;;;;;;;;;;;;;;13.59;100.00;99017.78;5055950;28;19925;-64
2022/10/27 10:49:33;;;;;;;;;;;;;;;13.74;100.00;99012.56;5047485;28;20036;-64
2022/10/27 10:52:00;;;;;;;;;;;;;;;13.79;100.00;99012.59;5056011;28;19957;-66
2022/10/27 10:54:28;;;;;;;;;;;;;;;13.79;100.00;99012.59;5055728;28;19925;-64
2022/10/27 10:56:55;;;;;;;;;;;;;;;13.85;100.00;99001.66;5056109;28;20453;-65
2022/10/27 10:59:24;;;;;;;;;;;;;;;13.87;100.00;98996.00;5058284;28;19989;-65
2022/10/27 11:01:53;;;;;;;;;;;;;;;13.97;100.00;99002.28;5059281;28;19932;-64
2022/10/27 11:04:21;;;;;;;;;;;;;;;14.03;100.00;99003.91;5056906;28;20007;-65
2022/10/27 11:06:59;;;;;;;;;;;;;;;14.07;100.00;98998.84;5055756;28;19939;-64
2022/10/27 11:09:27;;;;;;;;;;;;;;;13.84;100.00;99005.38;5058378;28;19952;-65
2022/10/27 11:11:54;;;;;;;;;;;;;;;14.06;100.00;98991.84;5058792;28;19984;-65
2022/10/27 11:14:23;;;;;;;;;;;;;;;14.23;100.00;98997.06;5056457;28;19925;-64
2022/10/27 11:16:51;;;;;;;;;;;;;;;14.38;100.00;98992.63;5055402;28;19984;-65
2022/10/27 11:19:20;;;;;;;;;;;;;;;14.43;100.00;98986.44;5057205;28;20008;-65
2022/10/27 11:21:50;;;;;;;;;;;;;;;14.19;100.00;98985.22;5059007;28;19967;-65
2022/10/27 11:24:20;;;;;;;;;;;;;;;14.31;100.00;98980.44;5056682;28;19968;-66
2022/10/27 11:26:52;;;;;;;;;;;;;;;14.52;100.00;98990.25;5055634;28;20336;-65
2022/10/27 11:29:23;;;;;;;;;;;;;;;14.60;100.00;98979.00;5056974;28;21263;-64
2022/10/27 11:31:55;;;;;;;;;;;;;;;14.79;100.00;98974.75;5058931;28;20590;-64
2022/10/27 11:34:28;;;;;;;;;;;;;;;14.92;100.00;98985.03;5056126;28;19974;-66
2022/10/27 11:36:57;;;;;;;;;;;;;;;14.96;100.00;98969.97;5055390;28;19929;-65
2022/10/27 11:39:29;;;;;;;;;;;;;;;15.18;100.00;98975.13;5057970;28;20024;-65
2022/10/27 11:42:01;;;;;;;;;;;;;;;15.08;100.00;98978.63;5058502;28;19980;-65
2022/10/27 11:44:32;;;;;;;;;;;;;;;15.05;100.00;98983.72;5055253;28;19947;-66
2022/10/27 11:47:01;;;;;;;;;;;;;;;15.05;100.00;98968.38;5055080;28;19980;-65
2022/10/27 11:49:32;;;;;;;;;;;;;;;14.83;100.00;98967.78;5058236;28;19936;-65
2022/10/27 11:52:04;;;;;;;;;;;;;;;15.17;100.00;98954.66;5058473;28;20020;-65
2022/10/27 11:54:32;;;;;;;;;;;;;;;15.29;100.00;98938.28;5046938;28;19932;-65
2022/10/27 11:57:04;;;;;;;;;;;;;;;15.36;100.00;98939.63;5054678;28;19965;-65
2022/10/27 11:59:38;;;;;;;;;;;;;;;15.40;100.00;98942.59;5046558;28;19925;-66
2022/10/27 12:02:12;;;;;;;;;;;;;;;15.03;100.00;98932.88;5053724;28;19973;-66
2022/10/27 12:04:43;;;;;;;;;;;;;;;14.88;100.00;98930.16;5057855;28;20037;-64
2022/10/27 12:07:13;;;;;;;;;;;;;;;15.10;100.00;98921.84;5057314;28;20016;-65
2022/10/27 12:09:47;;;;;;;;;;;;;;;15.30;100.00;98921.03;5054738;28;19949;-65
2022/10/27 12:12:16;;;;;;;;;;;;;;;15.67;100.00;98910.84;5055823;28;19925;-64
2022/10/27 12:14:47;;;;;;;;;;;;;;;15.98;100.00;98915.09;5057933;28;19929;-65
2022/10/27 12:17:18;;;;;;;;;;;;;;;16.03;100.00;98917.75;5056486;28;19946;-65
2022/10/27 12:19:46;;;;;;;;;;;;;;;16.10;100.00;98917.47;5054713;28;19968;-65
2022/10/27 12:22:14;;;;;;;;;;;;;;;16.25;100.00;98927.41;5054415;28;19925;-64
2022/10/27 12:24:45;;;;;;;;;;;;;;;16.43;100.00;98924.91;5054466;28;20012;-65
2022/10/27 12:27:14;;;;;;;;;;;;;;;16.71;100.00;98920.78;5055523;28;19925;-64
2022/10/27 12:29:45;;;;;;;;;;;;;;;16.83;100.00;98910.47;5057971;28;19971;-65
2022/10/27 12:32:14;;;;;;;;;;;;;;;16.65;100.00;98906.50;5056599;28;19988;-64
2022/10/27 12:34:44;;;;;;;;;;;;;;;16.73;100.00;98905.13;5054402;28;19960;-65
2022/10/27 12:37:14;;;;;;;;;;;;;;;16.50;100.00;98908.44;5055430;28;19984;-65
2022/10/27 12:39:44;;;;;;;;;;;;;;;16.52;100.00;98906.28;5057816;28;19984;-64